Time;durP1;ratioP1;P1;durP2;ratioP2;P2;SDS_P1;SDS_P2;PMS_P1;PMS_P2;Temp;Humidity;BMP_temperature;BMP_pressure;BME280_temperature;BME280_humidity;BME280_pressure;Samples;Min_cycle;Max_cycle;Signal;HPM_P1;HPM_P2
2023/08/23 00:01:09;;;;;;;6.45;5.00;;;25.20;99.90;;;;;;5071607;28;20017;-60
2023/08/23 00:03:34;;;;;;;7.32;5.30;;;25.10;99.90;;;;;;5071375;28;20024;-60
2023/08/23 00:06:00;;;;;;;7.72;5.00;;;25.00;99.90;;;;;;5071582;28;20025;-60
2023/08/23 00:08:26;;;;;;;7.88;5.07;;;24.90;99.90;;;;;;5071649;28;20046;-60
2023/08/23 00:10:55;;;;;;;6.43;5.13;;;24.80;99.90;;;;;;5071470;28;20020;-60
2023/08/23 00:13:22;;;;;;;7.18;5.13;;;24.80;99.90;;;;;;5071732;28;20025;-60
2023/08/23 00:15:48;;;;;;;5.70;5.15;;;24.80;99.90;;;;;;5071170;28;20024;-59
2023/08/23 00:18:14;;;;;;;7.25;5.13;;;24.90;99.90;;;;;;5071324;28;20504;-60
2023/08/23 00:20:39;;;;;;;8.57;5.47;;;24.90;99.90;;;;;;5071171;28;20119;-59
2023/08/23 00:23:05;;;;;;;7.68;5.30;;;25.00;99.90;;;;;;5071402;28;20060;-60
2023/08/23 00:25:31;;;;;;;6.55;5.22;;;25.10;99.90;;;;;;5071287;28;20393;-60
2023/08/23 00:27:57;;;;;;;6.60;5.30;;;25.00;99.90;;;;;;5071330;28;20542;-60
2023/08/23 00:30:23;;;;;;;7.90;5.15;;;25.10;99.90;;;;;;5071178;28;20020;-60
2023/08/23 00:32:48;;;;;;;7.28;5.70;;;25.10;99.90;;;;;;5070769;28;20024;-59
2023/08/23 00:35:14;;;;;;;7.65;5.18;;;25.00;99.90;;;;;;5071329;28;20024;-60
2023/08/23 00:37:40;;;;;;;7.07;5.10;;;25.00;99.90;;;;;;5071150;28;20104;-60
2023/08/23 00:40:09;;;;;;;6.97;5.15;;;25.10;99.90;;;;;;5071135;28;20021;-60
2023/08/23 00:42:35;;;;;;;6.45;5.10;;;25.00;99.90;;;;;;5071270;28;20029;-60
2023/08/23 00:45:01;;;;;;;6.20;5.10;;;24.90;99.90;;;;;;5071048;28;20035;-60
2023/08/23 00:47:27;;;;;;;7.72;5.07;;;24.90;99.90;;;;;;5071238;28;20124;-60
2023/08/23 00:49:52;;;;;;;6.57;4.93;;;24.90;99.90;;;;;;5071159;28;20024;-60
2023/08/23 00:52:18;;;;;;;6.65;5.40;;;24.80;99.90;;;;;;5052973;28;20039;-60
2023/08/23 00:54:45;;;;;;;9.32;5.53;;;24.80;99.90;;;;;;5071017;28;20063;-60
2023/08/23 00:57:11;;;;;;;7.85;5.18;;;24.80;99.90;;;;;;5071291;28;20043;-60
2023/08/23 00:59:37;;;;;;;7.13;5.13;;;24.60;99.90;;;;;;5070943;28;20142;-60
2023/08/23 01:02:03;;;;;;;6.80;5.28;;;24.50;99.90;;;;;;5070622;28;20119;-61
2023/08/23 01:04:29;;;;;;;7.40;5.28;;;24.40;99.90;;;;;;5070864;28;20029;-60
2023/08/23 01:07:13;;;;;;;6.85;5.60;;;24.30;99.90;;;;;;5071015;28;20477;-60
2023/08/23 01:09:51;;;;;;;9.57;5.38;;;24.20;99.90;;;;;;5071130;28;20021;-60
2023/08/23 01:12:35;;;;;;;9.48;5.30;;;24.20;99.90;;;;;;5071179;28;20079;-60
2023/08/23 01:15:12;;;;;;;8.18;5.60;;;24.20;99.90;;;;;;5070687;28;20546;-60
2023/08/23 01:17:42;;;;;;;6.80;5.63;;;24.20;99.90;;;;;;5070920;28;20035;-60
2023/08/23 01:20:13;;;;;;;7.75;5.70;;;24.10;99.90;;;;;;5070575;28;20036;-60
2023/08/23 01:22:45;;;;;;;6.03;5.40;;;24.10;99.90;;;;;;5070679;28;20503;-59
2023/08/23 01:25:13;;;;;;;6.60;5.55;;;24.00;99.90;;;;;;5053199;28;20032;-60
2023/08/23 01:27:38;;;;;;;6.38;5.10;;;23.90;99.90;;;;;;5070437;28;20086;-60
2023/08/23 01:30:05;;;;;;;8.80;5.72;;;23.90;99.90;;;;;;5070406;28;20056;-60
2023/08/23 01:32:39;;;;;;;6.90;5.70;;;23.80;99.90;;;;;;5071352;28;20085;-60
2023/08/23 01:35:17;;;;;;;7.43;5.68;;;23.80;99.90;;;;;;5074471;28;20040;-60
2023/08/23 01:37:47;;;;;;;8.00;5.70;;;23.80;99.90;;;;;;5056575;28;20139;-60
2023/08/23 01:40:14;;;;;;;7.00;5.68;;;23.90;99.90;;;;;;5074357;28;20397;-60
2023/08/23 01:42:41;;;;;;;9.07;5.55;;;24.00;99.90;;;;;;5056233;28;20021;-60
2023/08/23 01:45:07;;;;;;;8.15;5.60;;;24.10;99.90;;;;;;5074023;28;20028;-60
2023/08/23 01:47:33;;;;;;;7.28;5.40;;;24.10;99.90;;;;;;5074573;28;20028;-60
2023/08/23 01:49:58;;;;;;;7.57;5.40;;;24.20;99.90;;;;;;5074356;28;20404;-59
2023/08/23 01:52:24;;;;;;;8.82;5.72;;;24.20;99.90;;;;;;5073852;28;20024;-59
2023/08/23 01:54:50;;;;;;;7.78;5.82;;;24.20;99.90;;;;;;5073975;28;20036;-60
2023/08/23 01:57:16;;;;;;;7.70;5.82;;;24.20;99.90;;;;;;5073997;28;20119;-60
2023/08/23 01:59:41;;;;;;;8.98;5.70;;;24.20;99.90;;;;;;5073624;28;20024;-60
2023/08/23 02:02:07;;;;;;;6.10;5.43;;;24.20;99.90;;;;;;5074405;28;20505;-60
2023/08/23 02:04:33;;;;;;;8.48;5.45;;;24.20;99.90;;;;;;5073805;28;20059;-60
2023/08/23 02:06:58;;;;;;;7.13;6.03;;;24.20;99.90;;;;;;5073809;28;20033;-60
2023/08/23 02:09:24;;;;;;;7.25;5.47;;;24.20;99.90;;;;;;5073796;28;20067;-60
2023/08/23 02:11:50;;;;;;;6.63;5.70;;;24.20;99.90;;;;;;5074211;28;20028;-60
2023/08/23 02:14:15;;;;;;;6.93;6.03;;;24.10;99.90;;;;;;5073277;28;20029;-60
2023/08/23 02:16:41;;;;;;;7.68;6.13;;;24.10;99.90;;;;;;5073661;28;20050;-60
2023/08/23 02:19:07;;;;;;;8.05;6.13;;;24.10;99.90;;;;;;5073688;28;20052;-60
2023/08/23 02:21:33;;;;;;;6.95;5.88;;;23.90;99.90;;;;;;5073691;28;20033;-60
2023/08/23 02:23:59;;;;;;;6.68;5.43;;;23.80;99.90;;;;;;5073559;28;20078;-60
2023/08/23 02:26:24;;;;;;;8.63;6.00;;;23.60;99.90;;;;;;5073611;28;20542;-60
2023/08/23 02:28:50;;;;;;;8.45;6.53;;;23.60;99.90;;;;;;5073430;28;20024;-60
2023/08/23 02:31:16;;;;;;;7.75;6.53;;;23.50;99.90;;;;;;5073268;28;20046;-60
2023/08/23 02:33:41;;;;;;;9.13;6.00;;;23.40;99.90;;;;;;5073661;28;20060;-60
2023/08/23 02:36:07;;;;;;;8.15;6.05;;;23.40;99.90;;;;;;5073261;28;20225;-60
2023/08/23 02:38:33;;;;;;;9.85;6.82;;;23.40;99.90;;;;;;5073304;28;20024;-60
2023/08/23 02:40:58;;;;;;;8.95;6.88;;;23.30;99.90;;;;;;5055530;28;20021;-60
2023/08/23 02:43:24;;;;;;;8.90;6.38;;;23.30;99.90;;;;;;5072848;28;20020;-60
2023/08/23 02:45:49;;;;;;;7.85;6.82;;;23.30;99.90;;;;;;5072449;28;20056;-60
2023/08/23 02:48:15;;;;;;;9.70;6.97;;;23.30;99.90;;;;;;5073118;28;20029;-60
2023/08/23 02:50:42;;;;;;;7.25;6.35;;;23.20;99.90;;;;;;5073164;28;20516;-60
2023/08/23 02:53:09;;;;;;;8.75;6.93;;;23.20;99.90;;;;;;5073013;28;20497;-60
2023/08/23 02:55:36;;;;;;;8.43;6.60;;;23.20;99.90;;;;;;5072786;28;20118;-59
2023/08/23 02:58:02;;;;;;;7.93;6.70;;;23.20;99.90;;;;;;5072657;28;20394;-60
2023/08/23 03:00:28;;;;;;;8.00;6.88;;;23.40;99.90;;;;;;5073084;28;20032;-60
2023/08/23 03:02:53;;;;;;;11.15;7.30;;;23.50;99.90;;;;;;5072695;28;20042;-60
2023/08/23 03:05:19;;;;;;;9.70;7.00;;;23.60;99.90;;;;;;5073221;28;20031;-60
2023/08/23 03:07:45;;;;;;;8.52;7.50;;;23.80;99.90;;;;;;5072669;28;20063;-60
2023/08/23 03:10:11;;;;;;;8.50;7.22;;;23.80;99.90;;;;;;5072499;28;20025;-60
2023/08/23 03:12:36;;;;;;;10.30;7.15;;;23.80;99.90;;;;;;5072711;28;20029;-59
2023/08/23 03:15:03;;;;;;;9.90;6.97;;;23.80;99.90;;;;;;5072365;28;20513;-60
2023/08/23 03:17:28;;;;;;;8.20;6.82;;;23.80;99.90;;;;;;5072300;28;20111;-60
2023/08/23 03:19:56;;;;;;;8.63;7.10;;;23.90;99.90;;;;;;5072420;28;20108;-60
2023/08/23 03:22:21;;;;;;;7.93;6.80;;;23.80;99.90;;;;;;5072316;28;20449;-60
2023/08/23 03:24:47;;;;;;;8.05;7.15;;;23.80;99.90;;;;;;5072503;28;20092;-60
2023/08/23 03:27:13;;;;;;;7.63;6.85;;;23.80;99.90;;;;;;5072205;28;20053;-60
2023/08/23 03:29:38;;;;;;;10.27;6.93;;;23.80;99.90;;;;;;5072264;28;20056;-59
2023/08/23 03:32:04;;;;;;;9.85;7.05;;;23.80;99.90;;;;;;5072284;28;20032;-59
2023/08/23 03:34:30;;;;;;;8.52;6.82;;;23.80;99.90;;;;;;5072097;28;20032;-60
2023/08/23 03:36:56;;;;;;;8.35;6.72;;;23.60;99.90;;;;;;5072484;28;20477;-60
2023/08/23 03:39:21;;;;;;;9.02;6.97;;;23.50;99.90;;;;;;5071996;28;20125;-60
2023/08/23 03:41:47;;;;;;;8.60;6.68;;;23.30;99.90;;;;;;5071613;28;20039;-60
2023/08/23 03:44:13;;;;;;;8.07;7.15;;;23.20;99.90;;;;;;5071970;28;20044;-60
2023/08/23 03:46:39;;;;;;;10.90;7.80;;;23.10;99.90;;;;;;5071910;28;20031;-60
2023/08/23 03:49:04;;;;;;;8.57;7.35;;;23.10;99.90;;;;;;5071931;28;20056;-59
2023/08/23 03:51:30;;;;;;;10.25;7.60;;;23.10;99.90;;;;;;5071854;28;20028;-60
2023/08/23 03:53:56;;;;;;;11.38;7.70;;;23.00;99.90;;;;;;5072035;28;20036;-60
2023/08/23 03:56:22;;;;;;;11.25;8.00;;;23.00;99.90;;;;;;5070466;28;20028;-60
2023/08/23 03:58:49;;;;;;;9.68;7.72;;;23.00;99.90;;;;;;5071878;28;20031;-60
2023/08/23 04:01:14;;;;;;;10.23;7.78;;;22.90;99.90;;;;;;5071765;28;20024;-60
2023/08/23 04:03:40;;;;;;;9.40;7.70;;;22.90;99.90;;;;;;5071929;28;20401;-60
2023/08/23 04:06:06;;;;;;;10.30;8.05;;;22.90;99.90;;;;;;5071445;28;20032;-60
2023/08/23 04:08:31;;;;;;;8.95;8.15;;;22.90;99.90;;;;;;5071574;28;20025;-60
2023/08/23 04:10:57;;;;;;;10.35;8.13;;;22.80;99.90;;;;;;5070962;28;20029;-60
2023/08/23 04:13:23;;;;;;;10.00;8.88;;;22.80;99.90;;;;;;5071410;28;20401;-60
2023/08/23 04:15:48;;;;;;;11.65;8.00;;;22.70;99.90;;;;;;5071265;28;20500;-60
2023/08/23 04:18:14;;;;;;;9.13;7.35;;;22.70;99.90;;;;;;5071443;28;20405;-60
2023/08/23 04:20:40;;;;;;;9.73;7.72;;;22.80;99.90;;;;;;5071336;28;20493;-60
2023/08/23 04:23:06;;;;;;;8.93;7.50;;;22.80;99.90;;;;;;5071739;28;20539;-60
2023/08/23 04:25:32;;;;;;;8.35;7.45;;;22.90;99.90;;;;;;5062593;28;20067;-59
2023/08/23 04:27:58;;;;;;;9.50;7.85;;;23.10;99.90;;;;;;5071544;28;20049;-60
2023/08/23 04:30:23;;;;;;;9.05;8.15;;;23.20;99.90;;;;;;5071092;28;20389;-59
2023/08/23 04:32:49;;;;;;;11.30;7.80;;;23.20;99.90;;;;;;5071217;28;20449;-60
2023/08/23 04:35:15;;;;;;;8.55;7.75;;;23.20;99.90;;;;;;5071698;28;20497;-59
2023/08/23 04:37:41;;;;;;;9.68;7.95;;;23.20;99.90;;;;;;5071096;28;20100;-59
2023/08/23 04:40:07;;;;;;;10.13;7.78;;;23.30;99.90;;;;;;5070868;28;20024;-60
2023/08/23 04:42:34;;;;;;;10.45;8.20;;;23.20;99.90;;;;;;5071328;28;20032;-59
2023/08/23 04:45:00;;;;;;;8.70;7.80;;;23.20;99.90;;;;;;5071314;28;20115;-59
2023/08/23 04:47:30;;;;;;;9.45;8.10;;;23.30;99.90;;;;;;5071054;28;20021;-60
2023/08/23 04:49:56;;;;;;;9.68;7.72;;;23.20;99.90;;;;;;5071183;28;20024;-59
2023/08/23 04:52:21;;;;;;;9.73;8.50;;;23.30;99.90;;;;;;5070884;28;20031;-60
2023/08/23 04:54:47;;;;;;;12.38;8.50;;;23.30;99.90;;;;;;5070632;28;20068;-60
2023/08/23 04:57:13;;;;;;;10.38;8.38;;;23.10;99.90;;;;;;5071010;28;20021;-60
2023/08/23 04:59:39;;;;;;;9.27;8.40;;;22.90;99.90;;;;;;5071162;28;20025;-60
2023/08/23 05:02:04;;;;;;;9.60;8.60;;;22.80;99.90;;;;;;5071227;28;20025;-59
2023/08/23 05:04:30;;;;;;;9.48;8.27;;;22.70;99.90;;;;;;5070996;28;20056;-60
2023/08/23 05:06:56;;;;;;;11.55;9.25;;;22.60;99.90;;;;;;5070888;28;20027;-60
2023/08/23 05:09:22;;;;;;;11.40;9.07;;;22.60;99.90;;;;;;5074501;28;20025;-60
2023/08/23 05:11:47;;;;;;;11.32;8.52;;;22.50;99.90;;;;;;5075514;28;20025;-60
2023/08/23 05:14:13;;;;;;;12.98;9.05;;;22.40;99.90;;;;;;5074597;28;20036;-60
2023/08/23 05:16:39;;;;;;;10.95;8.48;;;22.40;99.90;;;;;;5074825;28;20021;-60
2023/08/23 05:19:04;;;;;;;10.27;8.77;;;22.30;99.90;;;;;;5074932;28;20039;-60
2023/08/23 05:21:30;;;;;;;9.90;8.85;;;22.30;99.90;;;;;;5074629;28;20561;-60
2023/08/23 05:23:56;;;;;;;10.20;9.05;;;22.20;99.90;;;;;;5074585;28;20039;-60
2023/08/23 05:26:21;;;;;;;10.57;9.48;;;22.20;99.90;;;;;;5074579;28;20275;-60
2023/08/23 05:28:47;;;;;;;10.73;9.63;;;22.20;99.90;;;;;;5074893;28;20033;-60
2023/08/23 05:31:14;;;;;;;14.85;9.95;;;22.20;99.90;;;;;;5074498;28;20028;-60
2023/08/23 05:33:42;;;;;;;12.68;10.07;;;22.20;99.90;;;;;;5074245;28;20470;-60
2023/08/23 05:36:07;;;;;;;13.90;10.43;;;22.20;99.90;;;;;;5074467;28;20033;-60
2023/08/23 05:38:33;;;;;;;10.70;9.48;;;22.40;99.90;;;;;;5074525;28;20180;-59
2023/08/23 05:40:58;;;;;;;11.18;9.20;;;22.60;99.90;;;;;;5074296;28;20030;-60
2023/08/23 05:43:24;;;;;;;12.73;9.70;;;22.90;99.90;;;;;;5074244;28;20020;-60
2023/08/23 05:45:56;;;;;;;10.13;9.13;;;22.90;99.90;;;;;;5074379;28;20028;-60
2023/08/23 05:48:22;;;;;;;12.60;9.93;;;23.00;99.90;;;;;;5074164;28;20040;-59
2023/08/23 05:50:48;;;;;;;10.82;9.50;;;23.00;99.90;;;;;;5074249;28;20027;-59
2023/08/23 05:53:20;;;;;;;11.20;9.18;;;23.00;99.90;;;;;;5074071;28;20032;-60
2023/08/23 05:55:49;;;;;;;10.45;9.10;;;23.10;99.90;;;;;;5074195;28;20064;-60
2023/08/23 05:58:18;;;;;;;10.25;9.35;;;23.10;99.90;;;;;;5073885;28;20017;-59
2023/08/23 06:00:45;;;;;;;10.52;9.15;;;23.10;99.90;;;;;;5074027;28;20024;-60
2023/08/23 06:03:14;;;;;;;11.27;9.80;;;23.10;99.90;;;;;;5074223;28;20036;-60
2023/08/23 06:05:41;;;;;;;12.55;9.98;;;23.10;99.90;;;;;;5055505;28;20606;-59
2023/08/23 06:08:07;;;;;;;11.82;9.65;;;23.20;99.90;;;;;;5073863;28;20512;-59
2023/08/23 06:10:32;;;;;;;13.00;9.95;;;23.20;99.90;;;;;;5065697;28;20025;-60
2023/08/23 06:12:58;;;;;;;12.77;10.10;;;23.30;99.90;;;;;;5073882;28;20108;-60
2023/08/23 06:15:24;;;;;;;11.73;10.50;;;23.10;99.90;;;;;;5073671;28;20071;-60
2023/08/23 06:17:49;;;;;;;12.02;10.40;;;23.00;99.90;;;;;;5073724;28;20330;-60
2023/08/23 06:20:16;;;;;;;12.45;11.02;;;22.90;99.90;;;;;;5072184;28;20493;-60
2023/08/23 06:22:43;;;;;;;10.82;9.75;;;22.80;99.90;;;;;;5073539;28;20031;-60
2023/08/23 06:25:09;;;;;;;13.52;10.20;;;22.80;99.90;;;;;;5073975;28;20028;-60
2023/08/23 06:27:35;;;;;;;15.88;10.90;;;22.80;99.90;;;;;;5073359;28;20060;-60
2023/08/23 06:30:02;;;;;;;14.20;10.73;;;22.80;99.90;;;;;;5073376;28;20036;-59
2023/08/23 06:32:28;;;;;;;14.73;10.98;;;22.80;99.90;;;;;;5073421;28;20086;-60
2023/08/23 06:34:53;;;;;;;12.98;10.95;;;22.80;99.90;;;;;;5072935;28;20028;-59
2023/08/23 06:37:19;;;;;;;14.20;11.27;;;22.90;99.90;;;;;;5073508;28;20099;-60
2023/08/23 06:39:45;;;;;;;12.18;10.65;;;22.90;99.90;;;;;;5073155;28;20028;-60
2023/08/23 06:42:11;;;;;;;14.93;11.10;;;23.00;99.90;;;;;;5073606;28;20044;-60
2023/08/23 06:44:36;;;;;;;15.75;11.30;;;23.00;99.90;;;;;;5073507;28;20052;-59
2023/08/23 06:47:02;;;;;;;13.13;10.40;;;23.00;99.90;;;;;;5073102;28;20035;-59
2023/08/23 06:49:28;;;;;;;13.63;10.55;;;23.10;99.90;;;;;;5072845;28;20020;-60
2023/08/23 06:51:53;;;;;;;12.05;10.68;;;23.20;99.90;;;;;;5073160;28;20044;-60
2023/08/23 06:54:19;;;;;;;14.02;11.00;;;23.20;99.90;;;;;;5072981;28;20143;-59
2023/08/23 06:56:46;;;;;;;13.63;11.27;;;23.30;99.90;;;;;;5055215;28;20074;-60
2023/08/23 06:59:12;;;;;;;15.35;10.63;;;23.60;99.90;;;;;;5073444;28;20024;-60
2023/08/23 07:01:38;;;;;;;14.15;10.35;;;23.60;99.90;;;;;;5072647;28;20024;-60
2023/08/23 07:04:04;;;;;;;14.82;11.32;;;23.80;99.90;;;;;;5072555;28;20029;-60
2023/08/23 07:06:31;;;;;;;12.90;10.48;;;23.90;99.90;;;;;;5073159;28;20033;-60
2023/08/23 07:08:57;;;;;;;12.65;10.60;;;24.20;99.90;;;;;;5072724;28;20029;-60
2023/08/23 07:11:23;;;;;;;14.75;10.32;;;24.20;99.90;;;;;;5072736;28;20370;-60
2023/08/23 07:13:49;;;;;;;14.57;10.93;;;24.20;99.90;;;;;;5072503;28;20036;-60
2023/08/23 07:16:15;;;;;;;12.27;10.50;;;24.40;99.90;;;;;;5072395;28;20044;-61
2023/08/23 07:18:42;;;;;;;14.00;10.85;;;24.50;99.90;;;;;;5072450;28;20492;-60
2023/08/23 07:21:08;;;;;;;12.90;9.98;;;24.50;99.90;;;;;;5072485;28;20035;-60
2023/08/23 07:23:34;;;;;;;11.32;10.20;;;24.60;99.90;;;;;;5072508;28;20023;-60
2023/08/23 07:26:02;;;;;;;17.77;10.40;;;24.60;99.90;;;;;;5072676;28;20048;-59
2023/08/23 07:28:28;;;;;;;11.25;10.07;;;24.80;99.90;;;;;;5072389;28;20032;-60
2023/08/23 07:30:57;;;;;;;11.57;10.13;;;24.80;99.90;;;;;;5071944;28;20120;-60
2023/08/23 07:33:27;;;;;;;12.85;10.32;;;24.90;99.90;;;;;;5071962;28;20576;-60
2023/08/23 07:36:03;;;;;;;11.10;9.98;;;24.90;99.90;;;;;;5072256;28;20044;-60
2023/08/23 07:38:32;;;;;;;12.98;9.93;;;24.90;99.90;;;;;;5072136;28;20063;-60
2023/08/23 07:41:00;;;;;;;13.48;10.43;;;24.90;99.90;;;;;;5071943;28;20408;-60
2023/08/23 07:43:26;;;;;;;11.95;9.93;;;24.90;99.90;;;;;;5072011;28;20040;-60
2023/08/23 07:46:03;;;;;;;12.55;10.18;;;24.90;99.90;;;;;;5072102;28;20495;-60
2023/08/23 07:48:29;;;;;;;11.93;10.68;;;24.90;99.90;;;;;;5071477;28;20021;-60
2023/08/23 07:50:57;;;;;;;12.00;10.48;;;25.00;99.90;;;;;;5071898;28;20021;-60
2023/08/23 07:53:23;;;;;;;10.95;9.85;;;25.10;99.90;;;;;;5071952;28;20024;-60
2023/08/23 07:55:49;;;;;;;12.38;10.43;;;25.20;99.90;;;;;;5071911;28;20059;-60
2023/08/23 07:58:15;;;;;;;11.32;10.10;;;25.20;99.90;;;;;;5072154;28;20080;-60
2023/08/23 08:00:41;;;;;;;12.23;10.70;;;25.20;99.90;;;;;;5071541;28;20064;-60
2023/08/23 08:03:09;;;;;;;13.10;11.25;;;25.40;99.90;;;;;;5053394;28;20035;-60
2023/08/23 08:05:35;;;;;;;13.35;11.05;;;25.40;99.90;;;;;;5071737;28;20032;-60
2023/08/23 08:08:03;;;;;;;12.23;10.88;;;25.40;99.90;;;;;;5072016;28;20586;-60
2023/08/23 08:10:29;;;;;;;12.13;10.88;;;25.40;99.90;;;;;;5071498;28;20012;-60
2023/08/23 08:12:55;;;;;;;15.40;11.05;;;25.50;99.90;;;;;;5071349;28;20040;-60
2023/08/23 08:15:21;;;;;;;12.77;11.35;;;25.70;99.90;;;;;;5071603;28;20029;-60
2023/08/23 08:17:50;;;;;;;12.45;11.13;;;25.80;99.90;;;;;;5071218;28;20028;-59
2023/08/23 08:20:17;;;;;;;13.55;12.25;;;26.10;99.90;;;;;;5071496;28;20047;-60
2023/08/23 08:22:42;;;;;;;18.90;13.40;;;26.00;99.90;;;;;;5071453;28;20024;-60
2023/08/23 08:25:08;;;;;;;15.25;13.25;;;26.10;99.90;;;;;;5071469;28;20032;-59
2023/08/23 08:27:34;;;;;;;20.85;13.93;;;26.30;99.90;;;;;;5071235;28;20533;-60
2023/08/23 08:30:00;;;;;;;16.65;14.43;;;26.30;99.90;;;;;;5071834;28;20437;-60
2023/08/23 08:32:27;;;;;;;17.52;14.15;;;26.30;99.90;;;;;;5071015;28;20028;-60
2023/08/23 08:34:53;;;;;;;18.25;15.32;;;26.30;99.90;;;;;;5071140;28;20044;-59
2023/08/23 08:37:21;;;;;;;16.77;15.07;;;26.30;99.90;;;;;;5071224;28;20401;-60
2023/08/23 08:39:47;;;;;;;17.02;15.25;;;26.30;99.90;;;;;;5071138;28;20111;-60
2023/08/23 08:42:13;;;;;;;16.05;14.38;;;26.30;99.90;;;;;;5070511;28;20108;-60
2023/08/23 08:44:38;;;;;;;16.48;14.75;;;26.30;99.90;;;;;;5071125;28;20081;-60
2023/08/23 08:47:05;;;;;;;17.08;14.35;;;26.40;99.90;;;;;;5071122;28;20025;-60
2023/08/23 08:49:30;;;;;;;20.00;14.20;;;26.40;99.90;;;;;;5070944;28;20036;-60
2023/08/23 08:52:03;;;;;;;22.55;13.75;;;26.50;99.90;;;;;;5071212;28;20504;-60
2023/08/23 08:54:30;;;;;;;19.83;12.75;;;26.50;99.90;;;;;;5071233;28;20065;-60
2023/08/23 08:56:57;;;;;;;20.13;12.55;;;26.50;99.90;;;;;;5071331;28;20465;-60
2023/08/23 08:59:22;;;;;;;19.00;13.27;;;26.40;99.90;;;;;;5070507;28;20032;-60
2023/08/23 09:01:50;;;;;;;17.63;11.90;;;26.30;99.90;;;;;;5070814;28;20112;-59
2023/08/23 09:04:16;;;;;;;19.67;11.38;;;26.20;99.90;;;;;;5053070;28;20033;-60
2023/08/23 09:06:45;;;;;;;17.00;11.45;;;26.10;99.90;;;;;;5071328;28;20465;-60
2023/08/23 09:09:12;;;;;;;19.67;11.45;;;26.20;99.90;;;;;;5070988;28;20112;-60
2023/08/23 09:11:37;;;;;;;15.27;10.35;;;26.10;99.90;;;;;;5070761;28;20028;-60
2023/08/23 09:14:17;;;;;;;16.60;9.13;;;26.10;99.90;;;;;;5070240;28;20047;-60
2023/08/23 09:16:44;;;;;;;15.73;8.52;;;26.30;99.90;;;;;;5070911;28;20024;-60
2023/08/23 09:19:11;;;;;;;15.38;8.13;;;26.30;99.90;;;;;;5071010;28;20020;-60
2023/08/23 09:21:45;;;;;;;13.10;7.70;;;26.50;99.90;;;;;;5052674;28;20028;-60
2023/08/23 09:24:11;;;;;;;13.70;7.88;;;26.50;99.90;;;;;;5071395;28;20028;-60
2023/08/23 09:26:37;;;;;;;13.13;7.63;;;26.50;99.90;;;;;;5070630;28;20032;-60
2023/08/23 09:29:04;;;;;;;10.77;7.25;;;26.50;99.90;;;;;;5070412;28;20485;-60
2023/08/23 09:31:30;;;;;;;12.13;7.28;;;26.40;99.90;;;;;;5070727;28;20028;-60
2023/08/23 09:33:56;;;;;;;11.02;7.50;;;26.40;99.90;;;;;;5070671;28;20041;-60
2023/08/23 09:36:29;;;;;;;12.35;7.82;;;26.50;99.90;;;;;;5070686;28;20027;-60
2023/08/23 09:38:56;;;;;;;13.55;7.75;;;26.50;99.90;;;;;;5070760;28;20401;-61
2023/08/23 09:41:22;;;;;;;13.88;7.65;;;26.70;99.90;;;;;;5070716;28;20020;-60
2023/08/23 09:43:54;;;;;;;13.15;7.18;;;27.00;99.90;;;;;;5070191;28;20044;-60
2023/08/23 09:46:24;;;;;;;9.43;6.90;;;27.10;99.90;;;;;;5070602;28;20520;-60
2023/08/23 09:48:52;;;;;;;9.48;7.55;;;27.40;99.90;;;;;;5070551;28;20032;-60
2023/08/23 09:51:22;;;;;;;11.45;7.32;;;27.50;99.90;;;;;;5070596;28;20079;-60
2023/08/23 09:53:52;;;;;;;9.32;6.47;;;27.70;99.90;;;;;;5071843;28;20043;-60
2023/08/23 09:56:17;;;;;;;12.73;7.40;;;27.80;99.90;;;;;;5073572;28;20028;-60
2023/08/23 09:58:43;;;;;;;9.30;7.93;;;27.80;99.90;;;;;;5074243;28;20347;-60
2023/08/23 10:01:10;;;;;;;12.52;7.22;;;27.80;99.90;;;;;;5056278;28;20389;-60
2023/08/23 10:03:36;;;;;;;13.02;7.80;;;27.80;99.90;;;;;;5073850;28;20032;-60
2023/08/23 10:06:02;;;;;;;10.23;7.80;;;27.80;99.90;;;;;;5074311;28;20024;-60
2023/08/23 10:08:31;;;;;;;11.68;7.82;;;27.80;99.90;;;;;;5073917;28;20139;-60
2023/08/23 10:10:57;;;;;;;9.82;7.38;;;27.90;99.90;;;;;;5073720;28;20024;-60
2023/08/23 10:13:23;;;;;;;10.18;7.55;;;28.00;99.90;;;;;;5073209;28;20028;-59
2023/08/23 10:15:52;;;;;;;9.80;7.25;;;28.30;99.90;;;;;;5073520;28;20089;-60
2023/08/23 10:18:19;;;;;;;9.43;6.95;;;28.30;99.90;;;;;;5073625;28;20036;-60
2023/08/23 10:20:45;;;;;;;11.27;7.07;;;28.20;99.90;;;;;;5073939;28;20032;-60
2023/08/23 10:23:15;;;;;;;11.40;7.47;;;28.40;99.90;;;;;;5073728;28;20389;-60
2023/08/23 10:25:45;;;;;;;11.77;7.53;;;28.40;99.90;;;;;;5073337;28;20508;-60
2023/08/23 10:28:18;;;;;;;10.82;7.70;;;28.40;99.90;;;;;;5073129;28;20032;-60
2023/08/23 10:30:48;;;;;;;9.73;7.60;;;28.20;99.90;;;;;;5073345;28;20020;-61
2023/08/23 10:33:15;;;;;;;11.27;8.32;;;28.10;99.90;;;;;;5073521;28;20032;-60
2023/08/23 10:35:45;;;;;;;12.45;8.10;;;27.90;99.90;;;;;;5073374;28;20129;-60
2023/08/23 10:38:12;;;;;;;12.10;8.50;;;27.90;99.90;;;;;;5073280;28;20403;-60
2023/08/23 10:40:40;;;;;;;10.95;7.85;;;27.90;99.90;;;;;;5073346;28;20435;-60
2023/08/23 10:43:14;;;;;;;13.63;8.52;;;28.00;99.90;;;;;;5073041;28;20103;-60
2023/08/23 10:45:50;;;;;;;13.10;9.27;;;28.10;99.90;;;;;;5073500;28;20032;-60
2023/08/23 10:48:19;;;;;;;11.95;8.40;;;28.00;99.90;;;;;;5072710;28;20074;-60
2023/08/23 10:50:46;;;;;;;12.35;8.45;;;28.10;99.90;;;;;;5073469;28;20033;-60
2023/08/23 10:53:13;;;;;;;10.57;8.10;;;28.30;99.90;;;;;;5073020;28;20021;-60
2023/08/23 10:55:39;;;;;;;10.18;7.95;;;28.40;99.90;;;;;;5072620;28;20123;-60
2023/08/23 10:58:05;;;;;;;14.95;8.90;;;28.40;99.90;;;;;;5073094;28;20074;-60
2023/08/23 11:00:30;;;;;;;11.20;7.95;;;28.40;99.90;;;;;;5072845;28;20044;-60
2023/08/23 11:02:56;;;;;;;9.88;8.38;;;28.40;99.90;;;;;;5073008;28;20024;-59
2023/08/23 11:05:22;;;;;;;14.38;8.05;;;28.40;99.90;;;;;;5072792;28;20037;-60
2023/08/23 11:07:49;;;;;;;12.27;7.95;;;28.60;99.90;;;;;;5072731;28;20501;-60
2023/08/23 11:10:15;;;;;;;11.18;7.40;;;28.90;99.90;;;;;;5072391;28;20024;-60
2023/08/23 11:12:41;;;;;;;10.57;8.07;;;29.20;99.90;;;;;;5072677;28;20043;-60
2023/08/23 11:15:07;;;;;;;10.25;8.40;;;29.30;99.90;;;;;;5072744;28;20039;-60
2023/08/23 11:17:34;;;;;;;10.98;8.27;;;29.50;99.90;;;;;;5072636;28;20025;-60
2023/08/23 11:20:00;;;;;;;10.10;8.00;;;29.80;99.90;;;;;;5072588;28;20377;-60
2023/08/23 11:22:26;;;;;;;11.95;8.40;;;30.00;99.90;;;;;;5072293;28;20021;-60
2023/08/23 11:24:52;;;;;;;12.35;8.77;;;30.20;99.90;;;;;;5054113;28;20086;-60
2023/08/23 11:27:17;;;;;;;12.18;8.75;;;30.20;99.90;;;;;;5072394;28;20067;-60
2023/08/23 11:29:43;;;;;;;10.57;8.77;;;30.50;99.90;;;;;;5072311;28;20059;-60
2023/08/23 11:32:11;;;;;;;11.75;9.00;;;30.60;99.90;;;;;;5072665;28;20032;-60
2023/08/23 11:34:37;;;;;;;10.60;8.90;;;30.70;99.90;;;;;;5072367;28;20044;-60
2023/08/23 11:37:09;;;;;;;15.15;9.85;;;30.80;99.90;;;;;;5072074;28;20390;-60
2023/08/23 11:39:35;;;;;;;15.20;9.43;;;30.80;99.90;;;;;;5071815;28;20036;-60
2023/08/23 11:42:01;;;;;;;12.07;9.38;;;30.80;99.90;;;;;;5072183;28;20020;-60
2023/08/23 11:44:28;;;;;;;14.13;10.27;;;30.90;99.90;;;;;;5072303;28;20058;-59
2023/08/23 11:46:56;;;;;;;14.10;10.23;;;31.00;99.90;;;;;;5072016;28;20024;-60
2023/08/23 11:49:23;;;;;;;15.02;10.13;;;31.20;99.90;;;;;;5071747;28;20485;-60
2023/08/23 11:51:50;;;;;;;12.23;10.63;;;31.60;99.90;;;;;;5071867;28;20029;-60
2023/08/23 11:54:22;;;;;;;14.10;10.38;;;31.90;99.90;;;;;;5071445;28;20460;-60
2023/08/23 11:56:47;;;;;;;13.75;9.95;;;32.30;99.90;;;;;;5071744;28;20770;-60
2023/08/23 11:59:13;;;;;;;12.02;9.40;;;32.40;99.90;;;;;;5072023;28;20116;-60
2023/08/23 12:01:42;;;;;;;12.60;9.00;;;32.40;99.90;;;;;;5071574;28;20024;-60
2023/08/23 12:04:10;;;;;;;13.63;9.68;;;32.30;99.90;;;;;;5072253;28;20448;-61
2023/08/23 12:06:35;;;;;;;12.00;9.55;;;32.20;99.90;;;;;;5071819;28;20039;-60
2023/08/23 12:09:01;;;;;;;12.25;8.82;;;32.10;99.90;;;;;;5071239;28;20397;-60
2023/08/23 12:11:27;;;;;;;11.60;8.85;;;32.30;99.90;;;;;;5071594;28;20024;-60
2023/08/23 12:13:53;;;;;;;11.43;8.90;;;32.30;99.90;;;;;;5071720;28;20024;-60
2023/08/23 12:16:18;;;;;;;10.75;8.65;;;32.40;99.90;;;;;;5071573;28;20037;-60
2023/08/23 12:18:48;;;;;;;13.70;8.70;;;32.40;99.90;;;;;;5070819;28;20028;-61
2023/08/23 12:21:15;;;;;;;15.35;9.32;;;32.60;99.90;;;;;;5071361;28;20033;-60
2023/08/23 12:23:40;;;;;;;15.05;9.50;;;32.60;99.90;;;;;;5071218;28;20123;-60
2023/08/23 12:26:06;;;;;;;10.35;8.45;;;32.70;99.90;;;;;;5071142;28;20706;-60
2023/08/23 12:28:32;;;;;;;13.23;9.15;;;32.70;99.90;;;;;;5071560;28;20485;-60
2023/08/23 12:30:57;;;;;;;12.80;9.80;;;32.70;99.90;;;;;;5071762;28;20104;-60
2023/08/23 12:33:23;;;;;;;10.50;9.40;;;32.40;99.90;;;;;;5071127;28;20517;-60
2023/08/23 12:35:49;;;;;;;15.57;10.05;;;32.10;99.90;;;;;;5071304;28;20041;-60